Rechercher aéroport 
image banner adimage banner adimage banner ad
image banner ad

KSBA - Santa Barbara Muni

Situé à Santa Barbara, United States

ICAO - SBA, IATA - SBA

Données fournies par Airmate  

Information générale

Coordonnées: N34°25'34" W119°50'29"
Élévation : 13 feet MSL.
Variation magnétique : 14° East
Évalué:
Voir évaluations:
[VIEW]
Voir autres Aéroports à California

Données opérationnelles

Special qualification required
Heure actuelle UTC:
Heure actuelle locale:
Météo
METAR: KSBA 292353Z 25009KT 10SM CLR 21/15 A2987 RMK AO2 SLP114 T02060150 10239 20200 58014
TAF: KSBA 292348Z 3000/3024 26012KT P6SM SKC FM300300 VRB03KT P6SM SKC FM301000 VRB03KT 5SM BR OVC005 FM301700 15005KT P6SM SCT007 FM302000 27012KT P6SM OVC005
Voir NOTAMs / SUP AIP / TFR affectant cet aéroport [VIEW]
Fréquences de communication: [VIEW]

Pistes:

Identifiant RWYQFULongueur (ft)Largeur (ft)SurfaceLDA (ft)
0789°6052150ASPH6052
25269°6052150ASPH6052
15R166°4184100ASPH4184
33L346°4184100ASPH4184
15L166°418075ASPH3963
33R346°418075ASPH4180

Coordonnées de l'aéroport

Adresse: Santa Barbara United States

Autres services d'aviation

Écoles de pilotage

Spitfire Aviation

Spitfire Aviation

Above All Aviation

Above All Aviation

Nanco Helicopters

Nanco Helicopters

Vue satellite de KSBA